Time;durP1;ratioP1;P1;durP2;ratioP2;P2;SDS_P1;SDS_P2;PMS_P1;PMS_P2;Temp;Humidity;BMP_temperature;BMP_pressure;BME280_temperature;BME280_humidity;BME280_pressure;Samples;Min_cycle;Max_cycle;Signal;HPM_P1;HPM_P2
2023/04/10 00:02:49;;;;;;;42.13;22.15;;;;;;;;;;12983738;19;20026;-61
2023/04/10 00:07:07;;;;;;;42.65;22.35;;;;;;;;;;12983561;19;20041;-61
2023/04/10 00:11:26;;;;;;;42.90;22.10;;;;;;;;;;12984003;19;20031;-61
2023/04/10 00:15:44;;;;;;;42.13;21.33;;;;;;;;;;12983778;19;20240;-62
2023/04/10 00:20:03;;;;;;;43.35;23.40;;;;;;;;;;12983672;19;20118;-61
2023/04/10 00:24:20;;;;;;;44.10;21.80;;;;;;;;;;12981154;19;20019;-61
2023/04/10 00:28:38;;;;;;;40.78;22.02;;;;;;;;;;12982802;19;20027;-62
2023/04/10 00:32:57;;;;;;;45.08;22.08;;;;;;;;;;12982385;19;20915;-62
2023/04/10 00:37:14;;;;;;;;;;;;;;;;;;12981929;19;20023;-62
2023/04/10 00:41:32;;;;;;;45.03;21.83;;;;;;;;;;12982070;19;19914;-61
2023/04/10 00:45:49;;;;;;;41.03;21.83;;;;;;;;;;12981294;19;20510;-61
2023/04/10 00:50:08;;;;;;;44.70;22.67;;;;;;;;;;12980809;19;20019;-61
2023/04/10 00:54:25;;;;;;;46.33;22.80;;;;;;;;;;12981100;19;20031;-61
2023/04/10 00:58:44;;;;;;;42.55;22.73;;;;;;;;;;12981934;19;20047;-61
2023/04/10 01:03:02;;;;;;;48.90;23.13;;;;;;;;;;12981816;19;20178;-62
2023/04/10 01:07:37;;;;;;;51.75;24.85;;;;;;;;;;12981055;19;20022;-60
2023/04/10 01:12:31;;;;;;;51.92;24.13;;;;;;;;;;12979502;19;20444;-61
2023/04/10 01:16:57;;;;;;;50.03;24.63;;;;;;;;;;12981024;19;20035;-61
2023/04/10 01:21:16;;;;;;;52.03;25.35;;;;;;;;;;12977906;19;20035;-60
2023/04/10 01:25:51;;;;;;;53.58;24.67;;;;;;;;;;12977390;19;20098;-61
2023/04/10 01:30:14;;;;;;;52.50;24.48;;;;;;;;;;12977170;19;20032;-61
2023/04/10 01:34:42;;;;;;;53.92;25.98;;;;;;;;;;12977516;19;20113;-60
2023/04/10 01:39:01;;;;;;;56.55;26.13;;;;;;;;;;12977777;19;20085;-60
2023/04/10 01:43:21;;;;;;;52.55;24.00;;;;;;;;;;12978810;19;20035;-62
2023/04/10 01:47:39;;;;;;;54.08;26.30;;;;;;;;;;12977297;19;20036;-61
2023/04/10 01:51:59;;;;;;;52.95;25.83;;;;;;;;;;12976859;19;20127;-61
2023/04/10 01:56:17;;;;;;;54.03;26.95;;;;;;;;;;12975771;19;20035;-61
2023/04/10 02:00:41;;;;;;;56.17;25.05;;;;;;;;;;12978382;19;20023;-61
2023/04/10 02:05:00;;;;;;;52.70;24.58;;;;;;;;;;12978204;19;20018;-61
2023/04/10 02:09:34;;;;;;;;;;;;;;;;;;12978227;19;20014;-61
2023/04/10 02:13:55;;;;;;;47.40;24.25;;;;;;;;;;12975554;19;19978;-61
2023/04/10 02:18:15;;;;;;;49.67;23.85;;;;;;;;;;12974637;19;20039;-61
2023/04/10 02:22:33;;;;;;;48.90;23.65;;;;;;;;;;12974985;19;20423;-61
2023/04/10 02:26:52;;;;;;;40.88;21.27;;;;;;;;;;12975684;19;20121;-61
2023/04/10 02:31:10;;;;;;;46.88;22.02;;;;;;;;;;12975856;19;20023;-61
2023/04/10 02:35:28;;;;;;;44.97;21.45;;;;;;;;;;12976112;19;20031;-61
2023/04/10 02:39:45;;;;;;;39.65;20.13;;;;;;;;;;12975753;19;20026;-62
2023/04/10 02:44:03;;;;;;;42.08;21.55;;;;;;;;;;12973570;19;20031;-61
2023/04/10 02:48:21;;;;;;;43.03;21.25;;;;;;;;;;12981827;19;20919;-62
2023/04/10 02:52:40;;;;;;;38.50;20.25;;;;;;;;;;12988513;19;20019;-62
2023/04/10 02:56:59;;;;;;;37.03;18.90;;;;;;;;;;12987176;19;20354;-61
2023/04/10 03:01:16;;;;;;;36.35;19.58;;;;;;;;;;12988312;19;20015;-61
2023/04/10 03:05:34;;;;;;;37.75;20.20;;;;;;;;;;12988081;19;20022;-61
2023/04/10 03:09:52;;;;;;;36.50;19.65;;;;;;;;;;12987184;19;20117;-61
2023/04/10 03:14:09;;;;;;;34.47;19.33;;;;;;;;;;12986566;19;20011;-61
2023/04/10 03:18:28;;;;;;;;;;;;;;;;;;12986970;19;20336;-62
2023/04/10 03:22:47;;;;;;;33.70;18.60;;;;;;;;;;12986308;19;19989;-61
2023/04/10 03:27:05;;;;;;;33.33;17.58;;;;;;;;;;12985348;19;20028;-61
2023/04/10 03:31:23;;;;;;;38.78;20.38;;;;;;;;;;12985313;19;20019;-62
2023/04/10 03:35:41;;;;;;;35.90;20.08;;;;;;;;;;12985463;19;20015;-61
2023/04/10 03:39:59;;;;;;;36.72;20.58;;;;;;;;;;12985555;19;20069;-61
2023/04/10 03:44:17;;;;;;;33.42;18.45;;;;;;;;;;12983430;19;20018;-61
2023/04/10 03:48:35;;;;;;;37.47;19.95;;;;;;;;;;12984853;19;20043;-61
2023/04/10 03:52:52;;;;;;;39.78;20.00;;;;;;;;;;12984944;19;20014;-61
2023/04/10 03:57:10;;;;;;;41.60;20.23;;;;;;;;;;12983952;19;20014;-61
2023/04/10 04:01:28;;;;;;;40.80;20.48;;;;;;;;;;12983170;19;20019;-61
2023/04/10 04:05:45;;;;;;;39.55;20.88;;;;;;;;;;12984528;19;20031;-62
2023/04/10 04:10:04;;;;;;;41.10;19.15;;;;;;;;;;12984600;19;20015;-61
2023/04/10 04:14:22;;;;;;;35.90;19.65;;;;;;;;;;12983897;19;20089;-61
2023/04/10 04:18:40;;;;;;;42.83;21.55;;;;;;;;;;12983094;19;20015;-61
2023/04/10 04:22:58;;;;;;;42.22;22.13;;;;;;;;;;12983055;19;20027;-61
2023/04/10 04:27:15;;;;;;;37.80;19.58;;;;;;;;;;12983080;19;20018;-61
2023/04/10 04:31:33;;;;;;;44.55;21.70;;;;;;;;;;12982937;19;20130;-61
2023/04/10 04:35:51;;;;;;;37.92;21.33;;;;;;;;;;12981868;19;20506;-61
2023/04/10 04:40:09;;;;;;;41.42;21.17;;;;;;;;;;12981528;19;20866;-62
2023/04/10 04:44:27;;;;;;;46.53;23.02;;;;;;;;;;12980539;19;20125;-62
2023/04/10 04:48:44;;;;;;;44.05;22.23;;;;;;;;;;12981480;19;20015;-62
2023/04/10 04:53:02;;;;;;;41.67;21.48;;;;;;;;;;12981062;19;20034;-61
2023/04/10 04:57:23;;;;;;;41.67;22.45;;;;;;;;;;12980673;19;20031;-62
2023/04/10 05:01:41;;;;;;;43.20;21.73;;;;;;;;;;12981173;19;20027;-62
2023/04/10 05:05:59;;;;;;;42.65;21.92;;;;;;;;;;12980994;19;20014;-61
2023/04/10 05:10:16;;;;;;;40.63;21.25;;;;;;;;;;12979819;19;20118;-61
2023/04/10 05:14:34;;;;;;;44.42;21.80;;;;;;;;;;12980405;19;20086;-62
2023/04/10 05:18:52;;;;;;;;;;;;;;;;;;12980944;19;20420;-61
2023/04/10 05:23:10;;;;;;;39.22;20.25;;;;;;;;;;12977766;19;20332;-62
2023/04/10 05:27:27;;;;;;;37.55;20.27;;;;;;;;;;12979490;19;20089;-62
2023/04/10 05:31:45;;;;;;;36.28;19.20;;;;;;;;;;12979482;19;20029;-61
2023/04/10 05:36:03;;;;;;;37.10;19.70;;;;;;;;;;12978624;19;20031;-62
2023/04/10 05:40:21;;;;;;;;;;;;;;;;;;12978871;19;20030;-61
2023/04/10 05:44:39;;;;;;;38.27;19.77;;;;;;;;;;12977648;19;19918;-61
2023/04/10 05:48:57;;;;;;;40.80;20.88;;;;;;;;;;12978190;19;20074;-61
2023/04/10 05:53:16;;;;;;;42.05;20.80;;;;;;;;;;12975724;19;20034;-61
2023/04/10 05:57:34;;;;;;;39.90;20.48;;;;;;;;;;12978508;19;20019;-60
2023/04/10 06:01:51;;;;;;;32.38;18.23;;;;;;;;;;12976230;19;20374;-61
2023/04/10 06:06:09;;;;;;;30.73;17.05;;;;;;;;;;12977005;19;20023;-61
2023/04/10 06:10:29;;;;;;;44.75;22.92;;;;;;;;;;12977573;19;20014;-61
2023/04/10 06:14:47;;;;;;;46.58;22.58;;;;;;;;;;12977496;19;20086;-61
2023/04/10 06:19:05;;;;;;;55.38;24.45;;;;;;;;;;12975994;19;20151;-61
2023/04/10 06:23:23;;;;;;;36.00;18.73;;;;;;;;;;12976067;19;20117;-61
2023/04/10 06:27:40;;;;;;;52.85;23.65;;;;;;;;;;12976690;19;20081;-61
2023/04/10 06:31:59;;;;;;;44.63;21.40;;;;;;;;;;12976242;19;20728;-63
2023/04/10 06:36:17;;;;;;;43.88;17.88;;;;;;;;;;12975314;19;20018;-64
2023/04/10 06:40:35;;;;;;;40.80;20.10;;;;;;;;;;12975545;19;20039;-63
2023/04/10 06:44:52;;;;;;;42.20;20.27;;;;;;;;;;12974125;19;20137;-64
2023/04/10 06:49:10;;;;;;;43.42;23.33;;;;;;;;;;12974669;19;20044;-64
2023/04/10 06:53:28;;;;;;;45.33;21.85;;;;;;;;;;12975260;19;20011;-63
2023/04/10 06:57:45;;;;;;;59.97;24.85;;;;;;;;;;12974412;19;20105;-63
2023/04/10 07:02:04;;;;;;;37.38;20.75;;;;;;;;;;12974393;19;20042;-63
2023/04/10 07:06:22;;;;;;;48.33;21.70;;;;;;;;;;12974443;19;20043;-63
2023/04/10 07:10:40;;;;;;;49.10;21.05;;;;;;;;;;12974449;19;20031;-63
2023/04/10 07:14:57;;;;;;;47.17;22.73;;;;;;;;;;12974884;19;20019;-63
2023/04/10 07:19:16;;;;;;;44.95;20.67;;;;;;;;;;12973199;19;20048;-64
2023/04/10 07:23:34;;;;;;;41.83;20.38;;;;;;;;;;12974391;19;20039;-64
2023/04/10 07:27:52;;;;;;;41.83;21.42;;;;;;;;;;12973335;19;20134;-63
2023/04/10 07:32:10;;;;;;;40.78;19.70;;;;;;;;;;12973994;19;20022;-63
2023/04/10 07:36:28;;;;;;;39.88;19.63;;;;;;;;;;12986305;19;20431;-64
2023/04/10 07:40:45;;;;;;;37.45;19.52;;;;;;;;;;12986150;19;20018;-64
2023/04/10 07:45:04;;;;;;;32.92;16.38;;;;;;;;;;12983295;19;20608;-64
2023/04/10 07:49:22;;;;;;;27.92;15.60;;;;;;;;;;12984489;19;20148;-63
2023/04/10 07:53:40;;;;;;;31.80;17.92;;;;;;;;;;12976228;19;20022;-65
2023/04/10 07:57:58;;;;;;;;;;;;;;;;;;12970861;19;20018;-65
2023/04/10 08:02:15;;;;;;;22.03;12.17;;;;;;;;;;12971375;19;20314;-65
2023/04/10 08:06:33;;;;;;;28.60;15.68;;;;;;;;;;12983246;19;20544;-65
2023/04/10 08:10:51;;;;;;;36.53;18.48;;;;;;;;;;12982359;19;20007;-64
2023/04/10 08:15:09;;;;;;;36.63;20.77;;;;;;;;;;12985442;19;20014;-63
2023/04/10 08:19:27;;;;;;;44.67;21.73;;;;;;;;;;12987291;19;20014;-63
2023/04/10 08:23:47;;;;;;;39.78;17.98;;;;;;;;;;12987901;19;20019;-65
2023/04/10 08:28:05;;;;;;;35.65;16.50;;;;;;;;;;12988056;19;20018;-63
2023/04/10 08:32:25;;;;;;;26.35;13.55;;;;;;;;;;12988058;19;20021;-63
2023/04/10 08:36:43;;;;;;;38.47;20.20;;;;;;;;;;12989937;19;20011;-64
2023/04/10 08:41:00;;;;;;;37.03;18.65;;;;;;;;;;12988063;19;20014;-63
2023/04/10 08:45:18;;;;;;;27.08;13.82;;;;;;;;;;12981737;19;20014;-64
2023/04/10 08:49:44;;;;;;;37.63;19.00;;;;;;;;;;12987390;19;20017;-64
2023/04/10 08:54:09;;;;;;;30.60;16.02;;;;;;;;;;12986030;19;20025;-63
2023/04/10 08:58:27;;;;;;;32.42;15.93;;;;;;;;;;12984860;19;20364;-64
2023/04/10 09:02:45;;;;;;;36.85;19.27;;;;;;;;;;12977524;19;20366;-65
2023/04/10 09:07:02;;;;;;;28.77;16.55;;;;;;;;;;12966586;19;20010;-64
2023/04/10 09:11:23;;;;;;;48.55;31.33;;;;;;;;;;12983571;19;20757;-65
2023/04/10 09:15:59;;;;;;;30.20;14.85;;;;;;;;;;12976470;19;20011;-64
2023/04/10 09:20:22;;;;;;;19.83;11.18;;;;;;;;;;12977661;19;20014;-65
2023/04/10 09:24:43;;;;;;;21.65;11.95;;;;;;;;;;12979189;19;20006;-65
2023/04/10 09:29:04;;;;;;;15.60;9.27;;;;;;;;;;12971863;19;20129;-64
2023/04/10 09:33:29;;;;;;;16.30;9.70;;;;;;;;;;12979440;19;20014;-64
2023/04/10 09:37:46;;;;;;;15.20;9.38;;;;;;;;;;12979852;19;20018;-64
2023/04/10 09:42:04;;;;;;;19.50;10.48;;;;;;;;;;12977903;19;20035;-65
2023/04/10 09:46:27;;;;;;;15.10;9.18;;;;;;;;;;12975059;19;20071;-64
2023/04/10 09:50:45;;;;;;;23.77;19.30;;;;;;;;;;12979185;19;20030;-64
2023/04/10 09:55:06;;;;;;;22.02;14.23;;;;;;;;;;12978164;19;20010;-66
2023/04/10 09:59:24;;;;;;;333.45;301.55;;;;;;;;;;12975964;19;20074;-63
2023/04/10 10:03:42;;;;;;;18.35;10.88;;;;;;;;;;12980527;19;20022;-64
2023/04/10 10:08:00;;;;;;;16.20;9.55;;;;;;;;;;12975971;19;20010;-65
2023/04/10 10:12:23;;;;;;;21.05;10.25;;;;;;;;;;12974130;19;20019;-63
2023/04/10 10:16:51;;;;;;;22.27;9.60;;;;;;;;;;12980070;19;20367;-64
2023/04/10 10:21:09;;;;;;;19.25;10.93;;;;;;;;;;12981405;19;20026;-63
2023/04/10 10:25:27;;;;;;;17.92;10.02;;;;;;;;;;12982087;19;20015;-62
2023/04/10 10:29:46;;;;;;;21.52;11.43;;;;;;;;;;12981311;19;20015;-62
2023/04/10 10:34:07;;;;;;;13.88;8.43;;;;;;;;;;12979283;19;20025;-64
2023/04/10 10:38:27;;;;;;;16.45;8.98;;;;;;;;;;12978701;19;20010;-63
2023/04/10 10:43:03;;;;;;;14.63;8.75;;;;;;;;;;12979786;19;20023;-63
2023/04/10 10:47:27;;;;;;;20.50;9.05;;;;;;;;;;12978988;19;20022;-63
2023/04/10 10:51:50;;;;;;;12.25;7.55;;;;;;;;;;12981563;19;20638;-63
2023/04/10 10:56:17;;;;;;;13.85;7.00;;;;;;;;;;12980002;19;20774;-63
2023/04/10 11:00:57;;;;;;;14.75;7.97;;;;;;;;;;12979236;19;20035;-63
2023/04/10 11:05:51;;;;;;;14.05;8.73;;;;;;;;;;12979114;19;20034;-63
2023/04/10 11:10:08;;;;;;;12.45;6.70;;;;;;;;;;12988693;19;20010;-63
2023/04/10 11:14:29;;;;;;;12.95;7.80;;;;;;;;;;12991028;19;20019;-63
2023/04/10 11:18:50;;;;;;;13.88;8.07;;;;;;;;;;12992030;19;20477;-63
2023/04/10 11:23:26;;;;;;;18.50;7.95;;;;;;;;;;12991020;19;20014;-63
2023/04/10 11:27:50;;;;;;;13.82;7.53;;;;;;;;;;12990860;19;20011;-63
2023/04/10 11:32:09;;;;;;;14.10;7.30;;;;;;;;;;12989893;19;20507;-64
2023/04/10 11:36:27;;;;;;;17.05;7.70;;;;;;;;;;12972879;19;20023;-63
2023/04/10 11:41:12;;;;;;;15.48;7.55;;;;;;;;;;12985068;19;20011;-63
2023/04/10 11:45:30;;;;;;;10.95;6.63;;;;;;;;;;12988872;19;20034;-64
2023/04/10 11:49:54;;;;;;;20.55;6.72;;;;;;;;;;12990357;19;20011;-63
2023/04/10 11:54:15;;;;;;;11.77;6.20;;;;;;;;;;12989321;19;20014;-63
2023/04/10 11:58:33;;;;;;;10.15;5.32;;;;;;;;;;12989601;19;20031;-63
2023/04/10 12:02:51;;;;;;;9.82;5.60;;;;;;;;;;12990352;19;20022;-63
2023/04/10 12:07:10;;;;;;;10.07;5.22;;;;;;;;;;12989213;19;20476;-63
2023/04/10 12:11:28;;;;;;;6.57;4.45;;;;;;;;;;12989685;19;20025;-64
2023/04/10 12:15:46;;;;;;;7.50;3.60;;;;;;;;;;12989770;19;20006;-63
2023/04/10 12:20:05;;;;;;;7.07;3.60;;;;;;;;;;12985217;19;20481;-64
2023/04/10 12:24:48;;;;;;;8.82;4.00;;;;;;;;;;12986566;19;20422;-64
2023/04/10 12:29:08;;;;;;;6.97;4.05;;;;;;;;;;12987445;19;20477;-65
2023/04/10 12:33:25;;;;;;;6.85;4.35;;;;;;;;;;12987818;19;20019;-64
2023/04/10 12:37:51;;;;;;;9.52;5.30;;;;;;;;;;12987687;19;20035;-64
2023/04/10 12:42:18;;;;;;;8.30;4.75;;;;;;;;;;12986227;19;20474;-67
2023/04/10 12:46:36;;;;;;;7.33;3.93;;;;;;;;;;12986270;19;20011;-67
2023/04/10 12:50:54;;;;;;;6.05;3.65;;;;;;;;;;12987035;19;20358;-67
2023/04/10 12:55:20;;;;;;;6.85;3.63;;;;;;;;;;12986263;19;20700;-68
2023/04/10 12:59:41;;;;;;;5.57;3.35;;;;;;;;;;12986503;19;20010;-67
2023/04/10 13:03:59;;;;;;;4.63;3.05;;;;;;;;;;12986504;19;20033;-67
2023/04/10 13:08:17;;;;;;;8.15;4.90;;;;;;;;;;12986066;19;20018;-67
2023/04/10 13:12:36;;;;;;;6.10;3.40;;;;;;;;;;12986179;19;20017;-67
2023/04/10 13:16:54;;;;;;;5.88;3.47;;;;;;;;;;12984952;19;21148;-67
2023/04/10 13:21:17;;;;;;;5.43;2.83;;;;;;;;;;12983675;19;20014;-66
2023/04/10 13:25:39;;;;;;;6.03;3.20;;;;;;;;;;12985239;19;20035;-66
2023/04/10 13:29:56;;;;;;;6.47;2.40;;;;;;;;;;12985030;19;20034;-66
2023/04/10 13:34:14;;;;;;;11.02;3.40;;;;;;;;;;12983899;19;20027;-67
2023/04/10 13:38:32;;;;;;;8.48;4.25;;;;;;;;;;12984638;19;20014;-66
2023/04/10 13:42:50;;;;;;;4.45;3.08;;;;;;;;;;12984843;19;20022;-66
2023/04/10 13:47:08;;;;;;;4.85;2.35;;;;;;;;;;12982468;19;20015;-67
2023/04/10 13:51:26;;;;;;;;;;;;;;;;;;12984032;19;20018;-67
2023/04/10 13:55:46;;;;;;;8.45;3.22;;;;;;;;;;12983650;19;19914;-67
2023/04/10 14:00:06;;;;;;;6.35;3.35;;;;;;;;;;12982049;19;20014;-67
2023/04/10 14:04:23;;;;;;;5.60;2.92;;;;;;;;;;12982520;19;20019;-66
2023/04/10 14:08:41;;;;;;;4.60;2.67;;;;;;;;;;12982688;19;20490;-66
2023/04/10 14:12:59;;;;;;;6.25;2.50;;;;;;;;;;12982658;19;20011;-66
2023/04/10 14:17:16;;;;;;;;;;;;;;;;;;12982350;19;20038;-67
2023/04/10 14:21:36;;;;;;;3.08;2.20;;;;;;;;;;12981305;19;19915;-66
2023/04/10 14:25:54;;;;;;;4.38;2.83;;;;;;;;;;12981446;19;20027;-66
2023/04/10 14:30:12;;;;;;;5.82;2.80;;;;;;;;;;12980852;19;20026;-66
2023/04/10 14:34:30;;;;;;;9.32;5.38;;;;;;;;;;12981795;19;20023;-66
2023/04/10 14:38:48;;;;;;;5.05;2.50;;;;;;;;;;12981023;19;20023;-66
2023/04/10 14:43:06;;;;;;;4.60;3.90;;;;;;;;;;12983893;19;20017;-67
2023/04/10 14:47:24;;;;;;;3.85;2.88;;;;;;;;;;12993098;19;20010;-67
2023/04/10 14:51:43;;;;;;;3.28;1.98;;;;;;;;;;12994200;19;20043;-67
2023/04/10 14:56:12;;;;;;;5.28;3.20;;;;;;;;;;12993144;19;20044;-70
2023/04/10 15:00:31;;;;;;;5.53;3.25;;;;;;;;;;12993272;19;20074;-67
2023/04/10 15:04:49;;;;;;;5.25;3.20;;;;;;;;;;12993513;19;20010;-67
2023/04/10 15:09:07;;;;;;;3.20;2.53;;;;;;;;;;12991886;19;20360;-67
2023/04/10 15:13:25;;;;;;;2.90;2.20;;;;;;;;;;12992575;19;20339;-67
2023/04/10 15:17:43;;;;;;;4.78;2.40;;;;;;;;;;12992322;19;20888;-67
2023/04/10 15:22:00;;;;;;;3.88;2.25;;;;;;;;;;12991418;19;20019;-66
2023/04/10 15:26:19;;;;;;;5.57;2.30;;;;;;;;;;12991384;19;20022;-66
2023/04/10 15:30:37;;;;;;;4.93;2.45;;;;;;;;;;12990630;19;20334;-66
2023/04/10 15:34:55;;;;;;;5.50;2.80;;;;;;;;;;12990521;19;20477;-66
2023/04/10 15:39:13;;;;;;;;;;;;;;;;;;12989146;19;20022;-66
2023/04/10 15:43:30;;;;;;;3.63;2.57;;;;;;;;;;12989984;19;19914;-66
2023/04/10 15:47:48;;;;;;;6.72;2.53;;;;;;;;;;12990121;19;20250;-66
2023/04/10 15:52:06;;;;;;;2.88;2.15;;;;;;;;;;12990282;19;20018;-66
2023/04/10 15:56:24;;;;;;;12.63;5.20;;;;;;;;;;12990824;19;20002;-66
2023/04/10 16:00:41;;;;;;;5.75;3.35;;;;;;;;;;12988963;19;20366;-66
2023/04/10 16:04:59;;;;;;;15.50;7.27;;;;;;;;;;12987677;19;20018;-66
2023/04/10 16:09:17;;;;;;;13.70;8.05;;;;;;;;;;12989148;19;20018;-66
2023/04/10 16:13:38;;;;;;;20.13;10.25;;;;;;;;;;12988863;19;20469;-66
2023/04/10 16:18:00;;;;;;;22.75;9.43;;;;;;;;;;12988627;19;20050;-66
2023/04/10 16:22:18;;;;;;;;;;;;;;;;;;12988015;19;20027;-66
2023/04/10 16:26:35;;;;;;;16.83;8.63;;;;;;;;;;12988913;19;20330;-66
2023/04/10 16:30:54;;;;;;;28.88;14.63;;;;;;;;;;12987493;19;20299;-66
2023/04/10 16:35:12;;;;;;;17.67;8.55;;;;;;;;;;12986445;19;20047;-67
2023/04/10 16:39:31;;;;;;;15.98;8.35;;;;;;;;;;12986981;19;20010;-67
2023/04/10 16:43:48;;;;;;;17.15;8.15;;;;;;;;;;12986086;19;20480;-67
2023/04/10 16:48:06;;;;;;;11.43;5.75;;;;;;;;;;12985740;19;20007;-67
2023/04/10 16:52:24;;;;;;;11.23;6.10;;;;;;;;;;12986356;19;20019;-66
2023/04/10 16:56:42;;;;;;;;;;;;;;;;;;12986648;19;20014;-66
2023/04/10 17:01:11;;;;;;;32.30;13.70;;;;;;;;;;12985293;19;19918;-66
2023/04/10 17:05:35;;;;;;;28.17;11.07;;;;;;;;;;12984643;19;20010;-66
2023/04/10 17:09:52;;;;;;;24.92;12.27;;;;;;;;;;12985962;19;20030;-66
2023/04/10 17:14:12;;;;;;;25.05;14.32;;;;;;;;;;12985220;19;20022;-66
2023/04/10 17:18:31;;;;;;;28.15;14.60;;;;;;;;;;12985008;19;20014;-66
2023/04/10 17:22:48;;;;;;;22.70;10.35;;;;;;;;;;12985421;19;20014;-66
2023/04/10 17:27:06;;;;;;;23.83;10.50;;;;;;;;;;12985261;19;20006;-66
2023/04/10 17:31:24;;;;;;;28.42;12.95;;;;;;;;;;12985234;19;20544;-66
2023/04/10 17:35:42;;;;;;;;;;;;;;;;;;12985729;19;20027;-66
2023/04/10 17:40:00;;;;;;;21.25;10.57;;;;;;;;;;12981163;19;19923;-66
2023/04/10 17:44:18;;;;;;;15.65;7.72;;;;;;;;;;12982283;19;20022;-66
2023/04/10 17:48:37;;;;;;;19.05;9.05;;;;;;;;;;12983175;19;20027;-66
2023/04/10 17:52:55;;;;;;;18.80;10.13;;;;;;;;;;12983727;19;20014;-66
2023/04/10 17:57:13;;;;;;;21.58;10.93;;;;;;;;;;12982650;19;20261;-65
2023/04/10 18:01:31;;;;;;;23.67;12.30;;;;;;;;;;12982219;19;20493;-65
2023/04/10 18:05:49;;;;;;;;;;;;;;;;;;12983875;19;20016;-65
2023/04/10 18:10:08;;;;;;;22.05;11.63;;;;;;;;;;12983373;19;19915;-67
2023/04/10 18:14:27;;;;;;;18.40;9.98;;;;;;;;;;12982636;19;20034;-66
2023/04/10 18:18:45;;;;;;;22.58;11.23;;;;;;;;;;12979786;19;20047;-67
2023/04/10 18:23:05;;;;;;;;;;;;;;;;;;12982133;19;20044;-66
2023/04/10 18:27:23;;;;;;;45.05;22.60;;;;;;;;;;12982269;19;19928;-67
2023/04/10 18:31:40;;;;;;;28.15;14.98;;;;;;;;;;12982739;19;20014;-67
2023/04/10 18:35:58;;;;;;;59.03;25.48;;;;;;;;;;12982317;19;20022;-66
2023/04/10 18:40:16;;;;;;;;;;;;;;;;;;12981391;19;20045;-67
2023/04/10 18:44:34;;;;;;;118.53;48.92;;;;;;;;;;12980934;19;19923;-67
2023/04/10 18:48:54;;;;;;;36.63;18.02;;;;;;;;;;12981459;19;20034;-67
2023/04/10 18:53:12;;;;;;;14.40;6.90;;;;;;;;;;12980010;19;20048;-67
2023/04/10 18:57:30;;;;;;;;;;;;;;;;;;12981234;19;20366;-67
2023/04/10 19:01:48;;;;;;;27.75;13.50;;;;;;;;;;12979866;19;20353;-66
2023/04/10 19:06:07;;;;;;;21.88;9.65;;;;;;;;;;12977724;19;20010;-67
2023/04/10 19:10:25;;;;;;;24.90;10.65;;;;;;;;;;12979858;19;20011;-67
2023/04/10 19:14:43;;;;;;;;;;;;;;;;;;12980234;19;20488;-66
2023/04/10 19:19:01;;;;;;;19.52;9.38;;;;;;;;;;12978467;19;20398;-67
2023/04/10 19:23:20;;;;;;;24.70;11.30;;;;;;;;;;12978763;19;20032;-66
2023/04/10 19:27:39;;;;;;;32.22;13.27;;;;;;;;;;12979931;19;20011;-67
2023/04/10 19:31:57;;;;;;;47.08;19.75;;;;;;;;;;12990252;19;20018;-66
2023/04/10 19:36:17;;;;;;;29.30;11.93;;;;;;;;;;12991488;19;20019;-67
2023/04/10 19:40:36;;;;;;;11.13;5.55;;;;;;;;;;12991371;19;20028;-67
2023/04/10 19:44:54;;;;;;;8.18;5.03;;;;;;;;;;12990907;19;20021;-66
2023/04/10 19:49:11;;;;;;;73.80;19.67;;;;;;;;;;12990507;19;20380;-66
2023/04/10 19:53:29;;;;;;;42.05;14.30;;;;;;;;;;12992003;19;20002;-66
2023/04/10 19:57:48;;;;;;;29.50;11.05;;;;;;;;;;12991504;19;20006;-66
2023/04/10 20:02:09;;;;;;;31.85;11.00;;;;;;;;;;12990683;19;20098;-67
2023/04/10 20:06:26;;;;;;;43.10;14.20;;;;;;;;;;12989194;19;20465;-66
2023/04/10 20:10:43;;;;;;;31.48;10.65;;;;;;;;;;12990899;19;20006;-67
2023/04/10 20:15:03;;;;;;;26.50;9.82;;;;;;;;;;12989600;19;20016;-68
2023/04/10 20:19:20;;;;;;;27.65;8.80;;;;;;;;;;12988617;19;20015;-67
2023/04/10 20:23:38;;;;;;;23.55;8.27;;;;;;;;;;12989141;19;20021;-67
2023/04/10 20:27:56;;;;;;;48.97;13.57;;;;;;;;;;12988599;19;20023;-67
2023/04/10 20:32:13;;;;;;;22.23;7.55;;;;;;;;;;12987182;19;20022;-67
2023/04/10 20:36:33;;;;;;;21.45;6.25;;;;;;;;;;12987609;19;20030;-67
2023/04/10 20:40:51;;;;;;;12.13;4.75;;;;;;;;;;12985490;19;21084;-67
2023/04/10 20:45:09;;;;;;;172.85;35.90;;;;;;;;;;12985504;19;20025;-67
2023/04/10 20:49:27;;;;;;;87.10;19.95;;;;;;;;;;12987144;19;20031;-67
2023/04/10 20:53:45;;;;;;;57.80;13.43;;;;;;;;;;12987176;19;20731;-67
2023/04/10 20:58:02;;;;;;;35.83;10.77;;;;;;;;;;12986120;19;20363;-66
2023/04/10 21:02:20;;;;;;;35.28;10.40;;;;;;;;;;12985392;19;20387;-66
2023/04/10 21:06:38;;;;;;;774.35;199.98;;;;;;;;;;12985833;19;20007;-66
2023/04/10 21:10:58;;;;;;;433.52;91.63;;;;;;;;;;12986043;19;20021;-65
2023/04/10 21:15:15;;;;;;;89.68;21.38;;;;;;;;;;12985722;19;20014;-66
2023/04/10 21:19:33;;;;;;;38.30;10.25;;;;;;;;;;12984809;19;20014;-66
2023/04/10 21:23:51;;;;;;;86.13;18.58;;;;;;;;;;12985446;19;20014;-65
2023/04/10 21:28:09;;;;;;;123.95;27.13;;;;;;;;;;12984160;19;21142;-66
2023/04/10 21:32:26;;;;;;;43.67;11.73;;;;;;;;;;12985242;19;20018;-65
2023/04/10 21:36:44;;;;;;;102.00;23.77;;;;;;;;;;12984607;19;20321;-66
2023/04/10 21:41:02;;;;;;;56.83;15.55;;;;;;;;;;12983117;19;20348;-66
2023/04/10 21:45:20;;;;;;;36.72;10.40;;;;;;;;;;12984358;19;20446;-66
2023/04/10 21:49:37;;;;;;;15.98;6.22;;;;;;;;;;12984139;19;20027;-65
2023/04/10 21:53:55;;;;;;;16.73;7.50;;;;;;;;;;12983784;19;20010;-65
2023/04/10 21:58:13;;;;;;;24.23;9.65;;;;;;;;;;12982590;19;20027;-66
2023/04/10 22:02:30;;;;;;;475.48;117.32;;;;;;;;;;12982102;19;20010;-66
2023/04/10 22:06:48;;;;;;;82.50;22.23;;;;;;;;;;12982671;19;20370;-65
2023/04/10 22:11:07;;;;;;;25.83;9.55;;;;;;;;;;12982296;19;20007;-66
2023/04/10 22:15:25;;;;;;;135.75;31.00;;;;;;;;;;12982559;19;20088;-65
2023/04/10 22:19:42;;;;;;;34.38;13.18;;;;;;;;;;12981769;19;20027;-66
2023/04/10 22:24:00;;;;;;;19.13;9.05;;;;;;;;;;12981979;19;20488;-66
2023/04/10 22:28:17;;;;;;;17.15;8.70;;;;;;;;;;12982211;19;20410;-66
2023/04/10 22:32:35;;;;;;;14.55;8.18;;;;;;;;;;12981696;19;20031;-66
2023/04/10 22:36:53;;;;;;;16.55;8.60;;;;;;;;;;12981719;19;20014;-66
2023/04/10 22:41:11;;;;;;;20.30;8.88;;;;;;;;;;12980198;19;20476;-66
2023/04/10 22:45:28;;;;;;;17.92;8.88;;;;;;;;;;12980837;19;20476;-65
2023/04/10 22:49:46;;;;;;;18.15;9.38;;;;;;;;;;12980873;19;20018;-65
2023/04/10 22:54:03;;;;;;;17.80;8.85;;;;;;;;;;12980019;19;20014;-66
2023/04/10 22:58:21;;;;;;;30.88;10.82;;;;;;;;;;12980986;19;20906;-65
2023/04/10 23:02:39;;;;;;;;;;;;;;;;;;12980871;19;20038;-65
2023/04/10 23:06:57;;;;;;;18.75;9.30;;;;;;;;;;12991318;19;19942;-65
2023/04/10 23:11:15;;;;;;;21.25;10.07;;;;;;;;;;12991552;19;20029;-66
2023/04/10 23:15:33;;;;;;;16.20;10.05;;;;;;;;;;12992418;19;20014;-66
2023/04/10 23:19:50;;;;;;;;;;;;;;;;;;12991955;19;20031;-65
2023/04/10 23:24:08;;;;;;;41.20;15.90;;;;;;;;;;12991259;19;19926;-66
2023/04/10 23:28:26;;;;;;;43.03;15.63;;;;;;;;;;12991537;19;20014;-65
2023/04/10 23:32:44;;;;;;;;;;;;;;;;;;12992018;19;20022;-65
2023/04/10 23:37:01;;;;;;;32.45;15.25;;;;;;;;;;12989914;19;19948;-67
2023/04/10 23:41:20;;;;;;;82.68;26.05;;;;;;;;;;12990082;19;20022;-66
2023/04/10 23:45:38;;;;;;;24.90;11.70;;;;;;;;;;12989606;19;20011;-66
2023/04/10 23:49:56;;;;;;;30.90;13.25;;;;;;;;;;12990493;19;20014;-66
2023/04/10 23:54:14;;;;;;;24.42;12.45;;;;;;;;;;12989248;19;20367;-66
2023/04/10 23:58:32;;;;;;;26.85;11.90;;;;;;;;;;12990423;19;20117;-66
